createdAt,value
2022-10-25T00:01:31.428Z,11.68
2022-10-25T00:03:58.801Z,11.44
2022-10-25T00:06:25.481Z,11.47
2022-10-25T00:08:52.252Z,11.49
2022-10-25T00:11:27.079Z,11.44
2022-10-25T00:13:55.487Z,11.53
2022-10-25T00:16:25.318Z,11.47
2022-10-25T00:18:52.663Z,11.48
2022-10-25T00:21:19.990Z,11.31
2022-10-25T00:23:47.548Z,11.28
2022-10-25T00:26:14.615Z,11.19
2022-10-25T00:28:41.885Z,11.12
2022-10-25T00:31:11.384Z,10.97
2022-10-25T00:33:39.081Z,11.01
2022-10-25T00:36:14.837Z,10.92
2022-10-25T00:38:41.871Z,10.95
2022-10-25T00:41:09.467Z,10.93
2022-10-25T00:43:40.741Z,10.87
2022-10-25T00:46:25.586Z,10.90
2022-10-25T00:48:52.964Z,10.86
2022-10-25T00:51:21.931Z,10.88
2022-10-25T00:53:48.640Z,10.81
2022-10-25T00:56:22.152Z,10.86
2022-10-25T00:58:54.233Z,10.65
2022-10-25T01:01:22.129Z,10.84
2022-10-25T01:03:51.261Z,10.84
2022-10-25T01:06:28.370Z,10.78
2022-10-25T01:08:57.364Z,10.93
2022-10-25T01:11:24.463Z,10.87
2022-10-25T01:13:51.698Z,11.01
2022-10-25T01:16:48.122Z,10.95
2022-10-25T01:22:11.675Z,10.89
2022-10-25T01:24:50.626Z,11.00
2022-10-25T01:27:26.221Z,10.93
2022-10-25T01:30:17.911Z,10.82
2022-10-25T01:32:54.074Z,10.65
2022-10-25T01:35:25.717Z,10.68
2022-10-25T01:38:30.942Z,10.65
2022-10-25T01:41:18.560Z,10.58
2022-10-25T01:43:51.345Z,10.54
2022-10-25T01:46:42.382Z,10.50
2022-10-25T01:49:15.640Z,10.50
2022-10-25T01:51:42.494Z,10.47
2022-10-25T01:54:27.690Z,10.33
2022-10-25T01:57:19.698Z,10.45
2022-10-25T02:00:03.361Z,10.30
2022-10-25T02:02:48.409Z,10.23
2022-10-25T02:05:21.997Z,10.10
2022-10-25T02:08:02.818Z,10.08
2022-10-25T02:10:32.069Z,10.08
2022-10-25T02:13:10.687Z,10.09
2022-10-25T02:15:41.053Z,10.07
2022-10-25T02:18:21.382Z,10.08
2022-10-25T02:20:50.954Z,10.09
2022-10-25T02:23:20.145Z,9.94
2022-10-25T02:25:49.739Z,10.05
2022-10-25T02:28:19.420Z,10.03
2022-10-25T02:30:48.484Z,10.08
2022-10-25T02:33:15.250Z,10.04
2022-10-25T02:35:41.884Z,10.10
2022-10-25T02:38:09.124Z,10.03
2022-10-25T02:40:36.545Z,9.99
2022-10-25T02:43:03.191Z,10.07
2022-10-25T02:45:29.860Z,9.95
2022-10-25T02:47:56.487Z,10.01
2022-10-25T02:50:23.102Z,9.82
2022-10-25T02:52:50.040Z,9.97
2022-10-25T02:55:16.994Z,9.98
2022-10-25T02:57:43.837Z,9.84
2022-10-25T03:02:37.792Z,9.89
2022-10-25T03:05:04.704Z,9.77
2022-10-25T03:07:31.261Z,9.60
2022-10-25T03:09:57.887Z,9.47
2022-10-25T03:12:24.471Z,9.49
2022-10-25T03:14:51.155Z,9.50
2022-10-25T03:17:17.885Z,9.40
2022-10-25T03:19:44.440Z,9.36
2022-10-25T03:22:12.170Z,9.33
2022-10-25T03:24:38.786Z,9.26
2022-10-25T03:27:05.405Z,9.28
2022-10-25T03:29:32.049Z,9.16
2022-10-25T03:31:58.622Z,9.15
2022-10-25T03:34:25.437Z,9.05
2022-10-25T03:36:52.522Z,9.07
2022-10-25T03:39:19.261Z,9.07
2022-10-25T03:41:46.593Z,8.94
2022-10-25T03:44:13.263Z,9.00
2022-10-25T03:46:39.906Z,8.97
2022-10-25T03:49:06.990Z,8.68
2022-10-25T03:51:34.070Z,8.68
2022-10-25T03:54:01.185Z,8.55
2022-10-25T03:56:27.930Z,8.45
2022-10-25T03:58:54.533Z,8.66
2022-10-25T04:01:21.506Z,8.65
2022-10-25T04:03:48.806Z,8.73
2022-10-25T04:06:15.703Z,8.52
2022-10-25T04:08:42.701Z,8.98
2022-10-25T04:11:09.533Z,8.95
2022-10-25T04:13:36.145Z,8.98
2022-10-25T04:16:07.523Z,8.82
2022-10-25T04:18:34.930Z,8.61
2022-10-25T04:21:02.810Z,8.57
2022-10-25T04:23:31.448Z,8.90
2022-10-25T04:25:58.128Z,8.21
2022-10-25T04:28:25.123Z,8.60
2022-10-25T04:30:52.217Z,8.82
2022-10-25T04:33:18.856Z,8.37
2022-10-25T04:35:53.290Z,8.85
2022-10-25T04:38:20.185Z,8.68
2022-10-25T04:40:56.879Z,8.58
2022-10-25T04:43:24.375Z,8.45
2022-10-25T04:45:51.114Z,8.80
2022-10-25T04:48:18.081Z,8.79
2022-10-25T04:50:44.906Z,8.58
2022-10-25T04:53:11.965Z,8.73
2022-10-25T04:55:39.017Z,8.63
2022-10-25T04:58:05.864Z,8.71
2022-10-25T05:00:32.717Z,8.66
2022-10-25T05:02:59.605Z,8.60
2022-10-25T05:05:27.920Z,8.46
2022-10-25T05:07:54.707Z,8.43
2022-10-25T05:10:21.351Z,8.30
2022-10-25T05:12:48.417Z,8.50
2022-10-25T05:15:15.353Z,8.71
2022-10-25T05:17:42.225Z,8.88
2022-10-25T05:20:09.356Z,8.85
2022-10-25T05:22:35.927Z,9.36
2022-10-25T05:25:02.519Z,9.66
2022-10-25T05:27:29.885Z,10.13
2022-10-25T05:29:56.526Z,10.50
2022-10-25T05:32:23.216Z,10.79
2022-10-25T05:34:49.968Z,10.84
2022-10-25T05:37:16.794Z,10.82
2022-10-25T05:39:43.625Z,11.23
2022-10-25T05:42:10.541Z,11.49
2022-10-25T05:44:37.214Z,11.70
2022-10-25T05:47:04.426Z,12.04
2022-10-25T05:49:31.325Z,12.51
2022-10-25T05:51:58.417Z,12.63
2022-10-25T05:54:25.585Z,12.62
2022-10-25T05:56:52.372Z,12.40
2022-10-25T05:59:18.939Z,12.34
2022-10-25T06:01:47.037Z,12.12
2022-10-25T06:04:15.418Z,12.29
2022-10-25T06:06:44.282Z,12.38
2022-10-25T06:09:11.464Z,12.20
2022-10-25T06:11:39.656Z,12.07
2022-10-25T06:14:07.291Z,12.54
2022-10-25T06:16:34.175Z,12.39
2022-10-25T06:19:01.034Z,12.37
2022-10-25T06:21:29.594Z,12.62
2022-10-25T06:23:58.158Z,12.77
2022-10-25T06:26:27.473Z,12.91
2022-10-25T06:28:56.679Z,13.14
2022-10-25T06:31:24.018Z,13.41
2022-10-25T06:33:51.236Z,13.42
2022-10-25T06:36:20.358Z,13.70
2022-10-25T06:38:48.006Z,14.13
2022-10-25T06:41:19.991Z,14.31
2022-10-25T06:43:46.900Z,14.30
2022-10-25T06:46:33.788Z,14.95
2022-10-25T06:49:05.484Z,15.40
2022-10-25T06:51:34.512Z,15.47
2022-10-25T06:54:04.840Z,15.97
2022-10-25T06:56:31.967Z,16.07
2022-10-25T06:58:58.777Z,16.45
2022-10-25T07:01:26.210Z,16.02
2022-10-25T07:03:54.584Z,15.66
2022-10-25T07:06:27.043Z,15.58
2022-10-25T07:08:59.246Z,15.02
2022-10-25T07:11:28.126Z,14.60
2022-10-25T07:13:56.299Z,14.27
2022-10-25T07:16:22.979Z,14.32
2022-10-25T07:18:49.762Z,14.25
2022-10-25T07:21:20.285Z,14.31
2022-10-25T07:23:48.000Z,14.36
2022-10-25T07:26:19.530Z,14.47
2022-10-25T07:28:47.837Z,14.84
2022-10-25T07:31:20.827Z,14.97
2022-10-25T07:33:48.662Z,15.03
2022-10-25T07:36:15.301Z,14.93
2022-10-25T07:38:41.985Z,15.06
2022-10-25T07:41:10.096Z,15.05
2022-10-25T07:43:37.040Z,15.14
2022-10-25T07:46:04.886Z,15.11
2022-10-25T07:48:31.474Z,15.28
2022-10-25T07:50:58.183Z,15.32
2022-10-25T07:53:24.753Z,15.75
2022-10-25T07:55:52.447Z,16.11
2022-10-25T07:58:19.401Z,16.35
2022-10-25T08:00:46.249Z,16.67
2022-10-25T08:03:14.295Z,16.77
2022-10-25T08:05:43.019Z,16.83
2022-10-25T08:08:09.929Z,16.89
2022-10-25T08:10:36.618Z,16.80
2022-10-25T08:13:03.291Z,17.13
2022-10-25T08:15:29.890Z,17.26
2022-10-25T08:18:00.683Z,17.40
2022-10-25T08:20:43.376Z,17.36
2022-10-25T08:23:15.204Z,17.59
2022-10-25T08:25:42.675Z,17.72
2022-10-25T08:28:09.682Z,17.87
2022-10-25T08:30:36.778Z,17.95
2022-10-25T08:33:03.631Z,17.88
2022-10-25T08:35:30.398Z,18.18
2022-10-25T08:38:00.617Z,18.23
2022-10-25T08:40:49.134Z,18.41
2022-10-25T08:43:29.615Z,18.66
2022-10-25T08:46:10.717Z,18.96
2022-10-25T08:48:43.843Z,18.92
2022-10-25T08:51:27.468Z,18.95
2022-10-25T08:53:58.942Z,18.97
2022-10-25T08:56:27.209Z,19.37
2022-10-25T08:59:01.656Z,19.38
2022-10-25T09:01:47.445Z,19.53
2022-10-25T09:04:15.813Z,19.90
2022-10-25T09:07:10.282Z,20.06
2022-10-25T09:09:50.353Z,20.27
2022-10-25T09:12:28.303Z,20.39
2022-10-25T09:15:29.275Z,20.65
2022-10-25T09:17:55.938Z,20.75
2022-10-25T09:20:38.166Z,20.90
2022-10-25T09:23:26.194Z,20.74
2022-10-25T09:26:08.198Z,21.04
2022-10-25T09:28:42.498Z,21.09
2022-10-25T09:31:15.009Z,21.05
2022-10-25T09:33:45.686Z,21.21
2022-10-25T09:36:14.276Z,21.51
2022-10-25T09:38:53.189Z,21.59
2022-10-25T09:41:26.787Z,21.26
2022-10-25T09:44:07.066Z,21.59
2022-10-25T09:46:45.138Z,21.56
2022-10-25T09:49:33.237Z,21.55
2022-10-25T09:52:05.802Z,21.90
2022-10-25T09:54:45.224Z,21.95
2022-10-25T09:57:12.047Z,21.93
2022-10-25T09:59:38.861Z,22.21
2022-10-25T10:02:05.683Z,21.89
2022-10-25T10:04:38.135Z,22.06
2022-10-25T10:07:35.931Z,22.09
2022-10-25T10:10:05.802Z,22.42
2022-10-25T10:12:40.127Z,22.63
2022-10-25T10:15:43.033Z,22.97
2022-10-25T10:18:32.687Z,23.27
2022-10-25T10:21:05.666Z,23.35
2022-10-25T10:23:47.758Z,23.45
2022-10-25T10:26:20.286Z,23.51
2022-10-25T10:28:49.336Z,23.41
2022-10-25T10:31:18.044Z,23.65
2022-10-25T10:33:50.367Z,23.57
2022-10-25T10:36:35.354Z,23.70
2022-10-25T10:39:23.004Z,23.79
2022-10-25T10:42:05.009Z,23.84
2022-10-25T10:44:35.522Z,23.87
2022-10-25T10:47:12.225Z,23.88
2022-10-25T10:49:41.694Z,23.80
2022-10-25T10:52:28.652Z,23.94
2022-10-25T10:54:56.100Z,23.86
2022-10-25T10:57:32.396Z,24.05
2022-10-25T11:00:00.786Z,24.09
2022-10-25T11:02:42.038Z,24.25
2022-10-25T11:05:26.403Z,24.15
2022-10-25T11:08:17.881Z,24.47
2022-10-25T11:10:44.639Z,24.52
2022-10-25T11:13:12.710Z,24.92
2022-10-25T11:15:48.321Z,25.04
2022-10-25T11:18:15.355Z,24.89
2022-10-25T11:20:59.466Z,24.85
2022-10-25T11:23:41.098Z,24.72
2022-10-25T11:26:19.011Z,25.08
2022-10-25T11:29:03.702Z,25.10
2022-10-25T11:31:53.470Z,25.27
2022-10-25T11:34:39.162Z,25.57
2022-10-25T11:37:11.269Z,25.91
2022-10-25T11:40:02.291Z,25.78
2022-10-25T11:42:28.799Z,25.81
2022-10-25T11:45:28.510Z,26.06
2022-10-25T11:48:09.448Z,26.27
2022-10-25T11:50:57.845Z,26.31
2022-10-25T11:53:59.869Z,26.22
2022-10-25T11:56:33.155Z,26.35
2022-10-25T11:59:11.858Z,26.48
2022-10-25T12:01:48.000Z,26.63
2022-10-25T12:04:30.190Z,26.88
2022-10-25T12:07:43.666Z,27.13
2022-10-25T12:10:20.063Z,27.07
2022-10-25T12:12:55.519Z,26.62
2022-10-25T12:15:30.111Z,26.44
2022-10-25T12:17:56.938Z,26.64
2022-10-25T12:20:27.900Z,26.74
2022-10-25T12:22:59.959Z,26.79
2022-10-25T12:25:31.453Z,26.53
2022-10-25T12:28:42.365Z,26.28
2022-10-25T12:31:20.067Z,25.92
2022-10-25T12:33:55.261Z,26.11
2022-10-25T12:36:27.950Z,26.10
2022-10-25T12:38:55.946Z,26.29
2022-10-25T12:41:27.591Z,26.43
2022-10-25T12:43:56.862Z,26.67
2022-10-25T12:46:51.538Z,26.64
2022-10-25T12:49:37.563Z,26.42
2022-10-25T12:52:10.027Z,26.12
2022-10-25T12:54:42.424Z,25.99
2022-10-25T12:57:22.859Z,25.76
2022-10-25T13:00:13.797Z,25.71
2022-10-25T13:02:40.479Z,26.10
2022-10-25T13:05:25.531Z,26.22
2022-10-25T13:07:57.438Z,26.30
2022-10-25T13:13:18.030Z,26.53
2022-10-25T13:15:59.900Z,26.56
2022-10-25T13:18:35.564Z,26.77
2022-10-25T13:21:05.145Z,26.37
2022-10-25T13:23:43.693Z,26.47
2022-10-25T13:26:13.939Z,26.71
2022-10-25T13:28:52.927Z,26.89
2022-10-25T13:31:34.943Z,26.45
2022-10-25T13:34:14.007Z,26.28
2022-10-25T13:36:51.586Z,26.55
2022-10-25T13:39:45.456Z,26.63
2022-10-25T13:42:15.190Z,26.42
2022-10-25T13:45:06.652Z,26.13
2022-10-25T13:47:38.482Z,26.06
2022-10-25T13:50:29.352Z,25.94
2022-10-25T13:53:11.134Z,26.02
2022-10-25T13:55:46.794Z,26.02
2022-10-25T13:58:34.043Z,25.77
2022-10-25T14:01:15.952Z,25.83
2022-10-25T14:03:51.853Z,25.55
2022-10-25T14:06:26.134Z,25.34
2022-10-25T14:09:01.928Z,25.26
2022-10-25T14:11:36.940Z,25.28
2022-10-25T14:14:28.835Z,25.25
2022-10-25T14:17:08.739Z,25.37
2022-10-25T14:19:41.031Z,25.28
2022-10-25T14:22:27.798Z,25.18
2022-10-25T14:24:57.669Z,25.03
2022-10-25T14:27:32.895Z,24.69
2022-10-25T14:30:26.333Z,24.84
2022-10-25T14:32:58.917Z,24.67
2022-10-25T14:35:31.179Z,24.41
2022-10-25T14:37:57.822Z,24.27
2022-10-25T14:40:30.908Z,24.27
2022-10-25T14:43:34.534Z,24.06
2022-10-25T14:46:10.305Z,23.94
2022-10-25T14:48:37.323Z,23.87
2022-10-25T14:51:14.529Z,23.69
2022-10-25T14:53:51.466Z,23.61
2022-10-25T14:56:32.580Z,23.58
2022-10-25T14:59:01.775Z,23.39
2022-10-25T15:01:28.853Z,23.50
2022-10-25T15:03:59.478Z,23.34
2022-10-25T15:06:28.748Z,23.33
2022-10-25T15:09:37.102Z,23.18
2022-10-25T15:12:12.890Z,23.29
2022-10-25T15:14:39.909Z,23.09
2022-10-25T15:17:17.327Z,23.08
2022-10-25T15:19:59.993Z,23.02
2022-10-25T15:22:45.105Z,22.76
2022-10-25T15:25:17.771Z,22.83
2022-10-25T15:27:44.431Z,22.59
2022-10-25T15:30:32.973Z,22.68
2022-10-25T15:32:59.749Z,22.46
2022-10-25T15:35:27.938Z,22.35
2022-10-25T15:37:56.405Z,22.46
2022-10-25T15:40:23.216Z,22.37
2022-10-25T15:42:50.019Z,22.29
2022-10-25T15:45:16.701Z,22.24
2022-10-25T15:47:45.183Z,22.23
2022-10-25T15:50:19.828Z,22.20
2022-10-25T15:52:46.745Z,22.11
2022-10-25T15:55:22.483Z,22.08
2022-10-25T15:57:50.286Z,22.08
2022-10-25T16:00:22.838Z,22.02
2022-10-25T16:02:53.150Z,22.04
2022-10-25T16:05:28.044Z,21.90
2022-10-25T16:07:55.633Z,21.54
2022-10-25T16:10:24.261Z,21.35
2022-10-25T16:12:58.580Z,21.32
2022-10-25T16:15:26.293Z,21.46
2022-10-25T16:17:53.348Z,21.38
2022-10-25T16:20:26.163Z,21.30
2022-10-25T16:22:53.434Z,21.11
2022-10-25T16:25:23.265Z,21.19
2022-10-25T16:27:50.153Z,21.19
2022-10-25T16:30:22.726Z,21.13
2022-10-25T16:32:50.309Z,21.10
2022-10-25T16:35:21.729Z,21.20
2022-10-25T16:37:48.725Z,21.16
2022-10-25T16:40:16.364Z,21.26
2022-10-25T16:42:43.146Z,21.21
2022-10-25T16:45:38.615Z,21.26
2022-10-25T16:48:05.941Z,21.23
2022-10-25T16:50:33.541Z,21.13
2022-10-25T16:53:03.274Z,21.30
2022-10-25T16:55:30.693Z,21.10
2022-10-25T16:57:58.743Z,21.23
2022-10-25T17:00:27.370Z,21.19
2022-10-25T17:02:54.889Z,20.96
2022-10-25T17:05:24.617Z,21.04
2022-10-25T17:07:51.659Z,21.02
2022-10-25T17:10:20.152Z,20.89
2022-10-25T17:12:49.830Z,20.76
2022-10-25T17:15:18.316Z,20.77
2022-10-25T17:17:46.799Z,20.56
2022-10-25T17:20:15.628Z,20.60
2022-10-25T17:22:42.577Z,20.56
2022-10-25T17:25:10.589Z,20.67
2022-10-25T17:27:39.831Z,20.64
2022-10-25T17:30:08.457Z,20.35
2022-10-25T17:32:35.006Z,20.48
2022-10-25T17:35:01.861Z,20.54
2022-10-25T17:37:29.173Z,20.49
2022-10-25T17:39:55.919Z,20.53
2022-10-25T17:42:22.944Z,20.39
2022-10-25T17:44:49.663Z,20.29
2022-10-25T17:47:16.795Z,20.36
2022-10-25T17:49:43.485Z,20.21
2022-10-25T17:52:10.536Z,20.10
2022-10-25T17:54:38.538Z,19.84
2022-10-25T17:57:06.299Z,19.61
2022-10-25T17:59:33.754Z,19.44
2022-10-25T18:02:01.511Z,19.55
2022-10-25T18:04:30.880Z,19.21
2022-10-25T18:07:04.587Z,19.17
2022-10-25T18:09:31.493Z,19.17
2022-10-25T18:11:58.613Z,19.10
2022-10-25T18:14:25.502Z,18.80
2022-10-25T18:16:52.873Z,18.74
2022-10-25T18:19:19.798Z,18.68
2022-10-25T18:21:46.757Z,18.63
2022-10-25T18:24:14.125Z,18.47
2022-10-25T18:26:41.241Z,18.40
2022-10-25T18:29:10.013Z,18.12
2022-10-25T18:31:36.866Z,18.29
2022-10-25T18:34:04.981Z,18.06
2022-10-25T18:36:32.469Z,18.11
2022-10-25T18:38:59.686Z,17.97
2022-10-25T18:41:32.286Z,17.90
2022-10-25T18:43:59.921Z,17.99
2022-10-25T18:46:30.967Z,17.73
2022-10-25T18:48:58.026Z,17.84
2022-10-25T18:51:29.281Z,17.75
2022-10-25T18:53:57.727Z,17.81
2022-10-25T18:56:24.784Z,17.59
2022-10-25T18:58:52.171Z,17.35
2022-10-25T19:01:29.237Z,16.98
2022-10-25T19:04:00.208Z,17.27
2022-10-25T19:06:27.801Z,17.22
2022-10-25T19:08:55.421Z,17.09
2022-10-25T19:11:22.685Z,17.10
2022-10-25T19:13:53.370Z,17.09
2022-10-25T19:16:20.436Z,16.75
2022-10-25T19:18:47.209Z,17.02
2022-10-25T19:21:18.510Z,16.89
2022-10-25T19:23:46.745Z,16.89
2022-10-25T19:26:20.556Z,16.93
2022-10-25T19:28:47.796Z,16.82
2022-10-25T19:31:18.434Z,16.76
2022-10-25T19:33:49.493Z,16.83
2022-10-25T19:36:17.950Z,16.85
2022-10-25T19:38:45.661Z,16.70
2022-10-25T19:41:16.767Z,16.68
2022-10-25T19:43:44.120Z,16.70
2022-10-25T19:46:12.237Z,16.72
2022-10-25T19:48:39.243Z,16.68
2022-10-25T19:51:12.069Z,16.68
2022-10-25T19:53:39.467Z,16.60
2022-10-25T19:56:09.030Z,16.70
2022-10-25T19:58:36.361Z,16.70
2022-10-25T20:01:09.372Z,16.72
2022-10-25T20:03:36.734Z,16.54
2022-10-25T20:06:07.130Z,16.56
2022-10-25T20:08:35.247Z,16.76
2022-10-25T20:11:02.657Z,16.73
2022-10-25T20:13:30.444Z,16.68
2022-10-25T20:15:57.414Z,16.53
2022-10-25T20:18:26.160Z,16.70
2022-10-25T20:20:58.301Z,16.67
2022-10-25T20:23:25.089Z,16.68
2022-10-25T20:25:52.096Z,16.40
2022-10-25T20:28:19.211Z,16.64
2022-10-25T20:30:45.922Z,16.66
2022-10-25T20:33:12.562Z,16.32
2022-10-25T20:35:41.883Z,16.68
2022-10-25T20:38:12.105Z,16.61
2022-10-25T20:40:39.841Z,16.70
2022-10-25T20:43:07.604Z,16.44
2022-10-25T20:45:35.019Z,16.60
2022-10-25T20:48:02.220Z,16.66
2022-10-25T20:50:30.410Z,16.62
2022-10-25T20:53:12.347Z,16.62
2022-10-25T20:55:39.415Z,16.66
2022-10-25T20:58:06.105Z,16.56
2022-10-25T21:00:33.709Z,16.64
2022-10-25T21:03:00.355Z,16.23
2022-10-25T21:05:27.338Z,16.60
2022-10-25T21:07:53.921Z,16.48
2022-10-25T21:10:20.581Z,16.49
2022-10-25T21:12:47.487Z,16.36
2022-10-25T21:15:14.163Z,16.44
2022-10-25T21:17:40.837Z,16.23
2022-10-25T21:20:09.019Z,16.14
2022-10-25T21:22:35.619Z,16.05
2022-10-25T21:25:02.860Z,15.93
2022-10-25T21:27:29.642Z,16.09
2022-10-25T21:29:56.242Z,16.00
2022-10-25T21:32:23.078Z,16.04
2022-10-25T21:34:52.624Z,15.52
2022-10-25T21:37:19.615Z,15.91
2022-10-25T21:39:47.655Z,15.69
2022-10-25T21:42:14.816Z,15.37
2022-10-25T21:44:41.531Z,15.93
2022-10-25T21:47:08.316Z,15.94
2022-10-25T21:49:34.984Z,15.78
2022-10-25T21:52:01.927Z,15.88
2022-10-25T21:54:28.558Z,15.80
2022-10-25T21:56:55.342Z,15.70
2022-10-25T21:59:22.788Z,15.61
2022-10-25T22:01:50.383Z,15.58
2022-10-25T22:04:17.064Z,15.45
2022-10-25T22:06:43.714Z,15.47
2022-10-25T22:09:10.414Z,15.32
2022-10-25T22:11:38.871Z,15.29
2022-10-25T22:14:08.924Z,15.04
2022-10-25T22:16:36.771Z,15.20
2022-10-25T22:19:06.503Z,15.13
2022-10-25T22:21:36.578Z,15.02
2022-10-25T22:24:04.953Z,15.04
2022-10-25T22:26:31.798Z,15.14
2022-10-25T22:28:59.298Z,14.95
2022-10-25T22:31:28.389Z,15.09
2022-10-25T22:33:57.265Z,15.16
2022-10-25T22:36:26.509Z,15.06
2022-10-25T22:38:53.711Z,14.94
2022-10-25T22:41:23.179Z,14.83
2022-10-25T22:43:50.662Z,14.95
2022-10-25T22:46:24.353Z,14.79
2022-10-25T22:48:53.389Z,15.00
2022-10-25T22:51:21.127Z,14.99
2022-10-25T22:53:47.985Z,14.95
2022-10-25T22:56:22.507Z,15.01
2022-10-25T22:58:53.985Z,15.03
2022-10-25T23:01:25.325Z,14.52
2022-10-25T23:03:54.637Z,14.62
2022-10-25T23:06:29.321Z,14.56
2022-10-25T23:08:57.673Z,14.43
2022-10-25T23:11:35.227Z,15.14
2022-10-25T23:14:02.266Z,14.90
2022-10-25T23:16:29.578Z,15.10
2022-10-25T23:18:56.701Z,14.88
2022-10-25T23:21:25.925Z,15.11
2022-10-25T23:23:54.152Z,15.10
2022-10-25T23:26:32.358Z,15.07
2022-10-25T23:29:00.450Z,14.91
2022-10-25T23:31:27.628Z,15.02
2022-10-25T23:33:56.345Z,14.88
2022-10-25T23:36:25.881Z,14.79
2022-10-25T23:38:53.875Z,14.81
2022-10-25T23:41:22.170Z,14.68
2022-10-25T23:43:50.093Z,14.75
2022-10-25T23:46:16.833Z,14.69
2022-10-25T23:48:43.675Z,14.34
2022-10-25T23:51:16.575Z,14.70
2022-10-25T23:53:43.505Z,14.76
2022-10-25T23:56:12.389Z,14.70
2022-10-25T23:58:39.426Z,14.71
